Time;durP1;ratioP1;P1;durP2;ratioP2;P2;SDS_P1;SDS_P2;PMS_P1;PMS_P2;Temp;Humidity;BMP_temperature;BMP_pressure;BME280_temperature;BME280_humidity;BME280_pressure;Samples;Min_cycle;Max_cycle;Signal;HPM_P1;HPM_P2
2022/01/31 00:01:42;;;;;;;18.40;6.07;;;4.40;99.90;;;;;;5014779;28;20725;-64
2022/01/31 00:04:10;;;;;;;16.38;6.05;;;4.40;99.90;;;;;;5014145;28;20202;-64
2022/01/31 00:06:37;;;;;;;16.13;6.50;;;4.30;99.90;;;;;;5014266;28;20217;-64
2022/01/31 00:09:12;;;;;;;15.00;5.95;;;4.30;99.90;;;;;;4996570;28;20209;-64
2022/01/31 00:11:43;;;;;;;16.08;7.35;;;4.50;99.90;;;;;;5014533;28;20239;-63
2022/01/31 00:14:30;;;;;;;15.57;6.70;;;4.50;99.90;;;;;;5014217;28;20639;-64
2022/01/31 00:16:58;;;;;;;20.80;6.82;;;4.40;99.90;;;;;;5014303;28;20315;-64
2022/01/31 00:19:28;;;;;;;17.67;7.38;;;4.50;99.90;;;;;;5014159;28;20197;-64
2022/01/31 00:21:56;;;;;;;17.75;7.50;;;4.50;99.90;;;;;;5014209;28;20212;-63
2022/01/31 00:24:24;;;;;;;12.07;7.13;;;4.60;99.90;;;;;;5014190;28;20280;-64
2022/01/31 00:26:53;;;;;;;17.85;7.32;;;4.70;99.90;;;;;;5013891;28;20233;-63
2022/01/31 00:29:21;;;;;;;18.17;7.88;;;4.70;99.90;;;;;;5012550;28;20202;-65
2022/01/31 00:31:49;;;;;;;16.88;7.20;;;4.80;99.90;;;;;;5014028;28;20712;-64
2022/01/31 00:34:17;;;;;;;14.77;6.20;;;4.90;99.90;;;;;;5013753;28;20741;-64
2022/01/31 00:36:45;;;;;;;11.70;6.15;;;4.80;99.90;;;;;;5013692;28;20249;-63
2022/01/31 00:39:13;;;;;;;13.80;6.22;;;4.80;99.90;;;;;;5013897;28;20304;-64
2022/01/31 00:41:41;;;;;;;12.27;6.93;;;4.90;99.90;;;;;;5013711;28;20667;-64
2022/01/31 00:44:21;;;;;;;14.88;6.10;;;4.60;99.90;;;;;;5013696;28;20666;-64
2022/01/31 00:46:54;;;;;;;12.32;6.28;;;4.40;99.90;;;;;;5013649;28;20312;-64
2022/01/31 00:49:35;;;;;;;11.02;5.90;;;4.60;99.90;;;;;;5013691;28;20207;-64
2022/01/31 00:52:05;;;;;;;16.92;7.40;;;4.70;99.90;;;;;;5013610;28;20729;-64
2022/01/31 00:54:33;;;;;;;11.52;5.40;;;4.80;99.90;;;;;;5013592;28;20689;-64
2022/01/31 00:57:01;;;;;;;13.88;6.65;;;4.80;99.90;;;;;;5013378;28;20257;-64
2022/01/31 00:59:30;;;;;;;16.00;6.85;;;4.80;99.90;;;;;;5011823;28;20292;-64
2022/01/31 01:01:58;;;;;;;15.60;6.55;;;4.80;99.90;;;;;;5011354;28;20220;-64
2022/01/31 01:04:26;;;;;;;16.25;6.35;;;4.80;99.90;;;;;;5013438;28;20197;-64
2022/01/31 01:06:54;;;;;;;14.85;5.95;;;4.30;99.90;;;;;;5013163;28;20321;-64
2022/01/31 01:09:22;;;;;;;15.05;6.75;;;4.00;99.90;;;;;;5013013;28;20276;-64
2022/01/31 01:11:50;;;;;;;17.50;6.20;;;4.20;99.90;;;;;;5013369;28;20284;-63
2022/01/31 01:14:17;;;;;;;14.65;6.75;;;4.00;99.90;;;;;;5013126;28;20277;-63
2022/01/31 01:16:47;;;;;;;20.55;6.40;;;3.90;99.90;;;;;;4995507;28;20642;-62
2022/01/31 01:19:14;;;;;;;15.20;7.13;;;3.70;99.90;;;;;;5012933;28;20292;-60
2022/01/31 01:21:42;;;;;;;13.73;6.35;;;3.40;99.90;;;;;;5012952;28;20312;-61
2022/01/31 01:24:10;;;;;;;13.18;7.55;;;3.20;99.90;;;;;;5012927;28;20657;-61
2022/01/31 01:26:38;;;;;;;14.57;6.20;;;3.40;99.90;;;;;;5012817;28;20320;-61
2022/01/31 01:29:07;;;;;;;13.57;6.25;;;3.30;99.90;;;;;;5012922;28;20233;-62
2022/01/31 01:31:36;;;;;;;14.90;7.32;;;3.10;99.90;;;;;;5013000;28;20289;-61
2022/01/31 01:34:05;;;;;;;18.15;7.53;;;3.20;99.90;;;;;;5012664;28;20251;-61
2022/01/31 01:36:34;;;;;;;22.67;7.50;;;3.30;99.90;;;;;;5012551;28;20313;-62
2022/01/31 01:39:02;;;;;;;10.90;6.50;;;3.40;99.90;;;;;;5012570;28;20646;-62
2022/01/31 01:41:34;;;;;;;14.93;6.65;;;3.90;99.90;;;;;;5010521;28;20208;-62
2022/01/31 01:44:06;;;;;;;11.55;5.68;;;4.20;99.90;;;;;;5012481;28;20288;-61
2022/01/31 01:46:35;;;;;;;22.30;6.93;;;4.40;99.90;;;;;;5006328;28;20296;-62
2022/01/31 01:49:07;;;;;;;17.15;5.68;;;4.60;99.90;;;;;;5012350;28;20631;-62
2022/01/31 01:51:34;;;;;;;12.02;4.57;;;4.70;99.90;;;;;;5012586;28;20236;-61
2022/01/31 01:54:03;;;;;;;16.00;5.03;;;4.90;99.90;;;;;;5012383;28;20639;-62
2022/01/31 01:56:30;;;;;;;16.92;6.25;;;4.60;99.90;;;;;;5012386;28;20316;-62
2022/01/31 01:59:04;;;;;;;11.27;4.63;;;4.50;99.90;;;;;;5012013;28;20284;-62
2022/01/31 02:01:32;;;;;;;11.50;5.50;;;4.30;99.90;;;;;;5012403;28;20667;-62
2022/01/31 02:04:00;;;;;;;15.73;6.38;;;4.50;99.90;;;;;;5013206;28;20201;-62
2022/01/31 02:06:29;;;;;;;9.23;4.75;;;4.40;99.90;;;;;;5009713;28;20261;-61
2022/01/31 02:08:57;;;;;;;12.88;6.00;;;4.50;99.90;;;;;;5010920;28;20281;-62
2022/01/31 02:11:25;;;;;;;11.85;5.18;;;4.50;99.90;;;;;;5012099;28;20213;-62
2022/01/31 02:13:53;;;;;;;17.55;7.32;;;4.50;99.90;;;;;;5011965;28;20746;-62
2022/01/31 02:16:20;;;;;;;10.48;5.10;;;4.70;99.90;;;;;;5012015;28;20315;-62
2022/01/31 02:18:51;;;;;;;12.75;5.57;;;4.70;99.90;;;;;;5012147;28;20563;-62
2022/01/31 02:21:20;;;;;;;10.20;5.50;;;4.70;99.90;;;;;;5012085;28;20201;-62
2022/01/31 02:23:49;;;;;;;10.85;5.40;;;4.60;99.90;;;;;;5011735;28;20308;-62
2022/01/31 02:26:17;;;;;;;11.98;5.53;;;4.50;99.90;;;;;;5011555;28;20315;-62
2022/01/31 02:28:44;;;;;;;13.02;6.22;;;4.50;99.90;;;;;;5011792;28;20301;-62
2022/01/31 02:31:12;;;;;;;14.30;5.93;;;4.60;99.90;;;;;;5012017;28;20654;-62
2022/01/31 02:33:41;;;;;;;10.65;5.63;;;4.50;99.90;;;;;;5011637;28;20840;-62
2022/01/31 02:36:09;;;;;;;11.85;5.70;;;4.60;99.90;;;;;;5011460;28;20648;-62
2022/01/31 02:38:38;;;;;;;16.85;6.63;;;4.70;99.90;;;;;;5011518;28;20197;-62
2022/01/31 02:41:06;;;;;;;11.68;5.32;;;4.70;99.90;;;;;;5011733;28;20229;-62
2022/01/31 02:43:35;;;;;;;19.25;6.40;;;4.70;99.90;;;;;;5011401;28;20283;-62
2022/01/31 02:46:04;;;;;;;13.60;5.10;;;4.70;99.90;;;;;;5011617;28;20677;-62
2022/01/31 02:48:35;;;;;;;22.52;5.38;;;4.70;99.90;;;;;;5011502;28;20237;-62
2022/01/31 02:51:08;;;;;;;12.10;5.57;;;4.80;99.90;;;;;;5011453;28;20296;-62
2022/01/31 02:53:41;;;;;;;10.57;4.35;;;5.00;99.90;;;;;;5011198;28;20208;-62
2022/01/31 02:56:10;;;;;;;13.23;4.70;;;5.20;99.90;;;;;;5011691;28;20263;-62
2022/01/31 02:58:38;;;;;;;14.48;5.22;;;5.30;99.90;;;;;;5011500;28;20693;-62
2022/01/31 03:01:07;;;;;;;12.98;5.25;;;5.10;99.90;;;;;;5011493;28;20224;-62
2022/01/31 03:03:35;;;;;;;13.70;5.18;;;5.00;99.90;;;;;;5011211;28;20201;-62
2022/01/31 03:06:03;;;;;;;10.10;5.00;;;4.90;99.90;;;;;;5011300;28;20315;-62
2022/01/31 03:08:32;;;;;;;15.15;5.13;;;4.90;99.90;;;;;;5011241;28;20622;-62
2022/01/31 03:11:01;;;;;;;15.23;5.10;;;4.70;99.90;;;;;;5011452;28;20205;-62
2022/01/31 03:13:30;;;;;;;15.93;5.50;;;4.90;99.90;;;;;;4991282;28;20364;-62
2022/01/31 03:15:57;;;;;;;10.48;5.22;;;4.90;99.90;;;;;;5011181;28;20224;-62
2022/01/31 03:18:27;;;;;;;12.57;4.22;;;5.00;99.90;;;;;;5011162;28;20717;-62
2022/01/31 03:20:55;;;;;;;22.67;5.32;;;5.10;99.90;;;;;;5011287;28;20201;-63
2022/01/31 03:23:23;;;;;;;10.55;4.90;;;5.20;99.90;;;;;;5011059;28;20205;-62
2022/01/31 03:25:51;;;;;;;13.55;4.78;;;5.30;99.90;;;;;;5010961;28;20269;-62
2022/01/31 03:28:20;;;;;;;16.15;5.63;;;5.40;99.90;;;;;;5010949;28;20320;-62
2022/01/31 03:30:48;;;;;;;9.32;4.50;;;5.30;99.90;;;;;;5011335;28;20749;-62
2022/01/31 03:33:16;;;;;;;10.90;4.25;;;4.80;99.90;;;;;;5010924;28;20270;-61
2022/01/31 03:35:44;;;;;;;9.68;5.40;;;4.60;99.90;;;;;;5010980;28;20316;-62
2022/01/31 03:38:11;;;;;;;11.40;5.03;;;4.30;99.90;;;;;;5010793;28;20284;-62
2022/01/31 03:40:39;;;;;;;12.80;5.57;;;4.00;99.90;;;;;;5012035;28;20288;-62
2022/01/31 03:43:07;;;;;;;11.82;5.25;;;4.30;99.90;;;;;;5010955;28;20236;-62
2022/01/31 03:45:36;;;;;;;12.73;5.18;;;4.20;99.90;;;;;;5011083;28;20312;-61
2022/01/31 03:48:06;;;;;;;15.52;5.18;;;4.50;99.90;;;;;;5010923;28;20749;-61
2022/01/31 03:50:34;;;;;;;13.73;5.97;;;4.50;99.90;;;;;;5004571;28;20296;-62
2022/01/31 03:53:02;;;;;;;10.32;5.32;;;4.80;99.90;;;;;;5004533;28;20263;-62
2022/01/31 03:55:30;;;;;;;12.20;5.07;;;5.00;99.90;;;;;;5004589;28;20790;-62
2022/01/31 03:57:58;;;;;;;13.40;4.68;;;5.10;99.90;;;;;;5004825;28;20751;-62
2022/01/31 04:00:26;;;;;;;7.40;4.07;;;5.20;99.90;;;;;;5004675;28;20790;-62
2022/01/31 04:02:55;;;;;;;14.75;5.68;;;5.10;99.90;;;;;;5011353;28;20240;-62
2022/01/31 04:05:23;;;;;;;11.60;4.90;;;4.90;99.90;;;;;;5014422;28;20257;-61
2022/01/31 04:07:51;;;;;;;11.30;5.47;;;5.00;99.90;;;;;;5014082;28;20212;-62
2022/01/31 04:10:19;;;;;;;11.52;5.10;;;4.90;99.90;;;;;;5014541;28;20244;-61
2022/01/31 04:12:47;;;;;;;12.35;5.35;;;4.80;99.90;;;;;;5014317;28;20240;-62
2022/01/31 04:15:14;;;;;;;15.07;5.88;;;4.80;99.90;;;;;;5014321;28;20682;-62
2022/01/31 04:17:42;;;;;;;10.85;5.50;;;4.40;99.90;;;;;;5011696;28;20666;-61
2022/01/31 04:20:12;;;;;;;12.77;4.53;;;4.20;99.90;;;;;;5013954;28;20194;-61
2022/01/31 04:22:47;;;;;;;11.15;5.22;;;4.00;99.90;;;;;;5014206;28;20690;-63
2022/01/31 04:25:28;;;;;;;14.25;5.38;;;4.10;99.90;;;;;;5014108;28;20323;-62
2022/01/31 04:28:03;;;;;;;14.50;5.93;;;4.10;99.90;;;;;;5014148;28;20271;-61
2022/01/31 04:30:31;;;;;;;13.32;5.40;;;4.20;99.90;;;;;;5014047;28;20777;-61
2022/01/31 04:32:59;;;;;;;11.80;6.18;;;4.10;99.90;;;;;;5013886;28;20205;-61
2022/01/31 04:35:28;;;;;;;15.50;5.78;;;4.10;99.90;;;;;;5013842;28;20280;-62
2022/01/31 04:37:58;;;;;;;15.80;6.22;;;4.10;99.90;;;;;;5013702;28;20738;-61
2022/01/31 04:40:26;;;;;;;9.50;5.68;;;4.20;99.90;;;;;;5013818;28;20304;-61
2022/01/31 04:42:54;;;;;;;13.32;5.47;;;4.20;99.90;;;;;;5013723;28;20240;-61
2022/01/31 04:45:22;;;;;;;17.85;5.70;;;4.10;99.90;;;;;;5013673;28;20765;-62
2022/01/31 04:47:50;;;;;;;11.38;5.28;;;4.10;99.90;;;;;;5013742;28;20303;-61
2022/01/31 04:50:18;;;;;;;15.40;6.47;;;3.90;99.90;;;;;;5013534;28;20223;-61
2022/01/31 04:52:47;;;;;;;16.92;6.72;;;3.90;99.90;;;;;;5013426;28;20618;-61
2022/01/31 04:55:15;;;;;;;15.55;6.47;;;4.00;99.90;;;;;;5013565;28;20980;-62
2022/01/31 04:57:43;;;;;;;16.00;6.30;;;3.90;99.90;;;;;;5013535;28;20229;-61
2022/01/31 05:00:12;;;;;;;16.65;6.55;;;3.80;99.90;;;;;;5013391;28;20292;-62
2022/01/31 05:02:40;;;;;;;16.15;6.80;;;3.70;99.90;;;;;;5013325;28;20256;-62
2022/01/31 05:05:08;;;;;;;13.43;6.60;;;3.70;99.90;;;;;;5013468;28;20636;-62
2022/01/31 05:07:36;;;;;;;15.52;7.47;;;3.60;99.90;;;;;;5013275;28;20312;-62
2022/01/31 05:10:07;;;;;;;14.77;7.10;;;3.60;99.90;;;;;;5006810;28;20283;-62
2022/01/31 05:12:35;;;;;;;17.15;7.68;;;3.50;99.90;;;;;;5006937;28;20643;-62
2022/01/31 05:15:03;;;;;;;18.58;8.40;;;3.40;99.90;;;;;;5012497;28;20308;-62
2022/01/31 05:17:31;;;;;;;19.20;8.57;;;3.40;99.90;;;;;;5013138;28;20632;-61
2022/01/31 05:19:59;;;;;;;20.27;8.25;;;3.40;99.90;;;;;;5013161;28;20288;-62
2022/01/31 05:22:28;;;;;;;15.95;7.45;;;3.40;99.90;;;;;;5012216;28;20208;-62
2022/01/31 05:24:56;;;;;;;15.55;7.47;;;3.40;99.90;;;;;;5008284;28;20225;-61
2022/01/31 05:27:25;;;;;;;16.85;7.65;;;3.20;99.90;;;;;;5013054;28;20240;-62
2022/01/31 05:29:53;;;;;;;17.73;8.45;;;3.20;99.90;;;;;;5012201;28;20597;-63
2022/01/31 05:32:20;;;;;;;12.23;7.30;;;3.20;99.90;;;;;;5006953;28;20308;-64
2022/01/31 05:34:48;;;;;;;16.77;8.98;;;3.20;99.90;;;;;;5006163;28;20227;-63
2022/01/31 05:37:16;;;;;;;19.63;8.55;;;3.10;99.90;;;;;;5014275;28;20228;-63
2022/01/31 05:39:45;;;;;;;18.52;8.70;;;3.10;99.90;;;;;;5007315;28;20209;-63
2022/01/31 05:42:14;;;;;;;14.00;8.35;;;3.10;99.90;;;;;;5006969;28;20652;-62
2022/01/31 05:44:46;;;;;;;15.27;8.10;;;3.10;99.90;;;;;;5007177;28;20297;-64
2022/01/31 05:47:14;;;;;;;11.70;7.97;;;3.10;99.90;;;;;;5007268;28;20284;-63
2022/01/31 05:49:43;;;;;;;18.00;8.65;;;3.10;99.90;;;;;;5007109;28;20221;-63
2022/01/31 05:52:12;;;;;;;17.98;8.68;;;3.10;99.90;;;;;;5006825;28;20236;-63
2022/01/31 05:54:41;;;;;;;14.75;8.52;;;3.10;99.90;;;;;;5006847;28;20237;-62
2022/01/31 05:57:10;;;;;;;16.65;8.00;;;3.20;99.90;;;;;;5006994;28;20292;-63
2022/01/31 05:59:39;;;;;;;13.35;8.77;;;3.20;99.90;;;;;;5006884;28;20243;-63
2022/01/31 06:02:08;;;;;;;17.20;8.32;;;3.20;99.90;;;;;;5006353;28;20200;-64
2022/01/31 06:04:37;;;;;;;15.40;9.20;;;3.20;99.90;;;;;;5006669;28;20224;-63
2022/01/31 06:07:05;;;;;;;11.70;7.88;;;3.20;99.90;;;;;;5006535;28;20844;-65
2022/01/31 06:09:32;;;;;;;12.63;7.40;;;3.30;99.90;;;;;;5006654;28;20673;-64
2022/01/31 06:12:02;;;;;;;11.43;7.22;;;3.30;99.90;;;;;;5006639;28;20216;-64
2022/01/31 06:14:30;;;;;;;11.82;7.45;;;3.30;99.90;;;;;;5007063;28;20237;-64
2022/01/31 06:16:59;;;;;;;12.77;7.30;;;3.40;99.90;;;;;;5006293;28;20316;-63
2022/01/31 06:19:29;;;;;;;14.00;7.05;;;3.40;99.90;;;;;;5006592;28;20744;-63
2022/01/31 06:21:57;;;;;;;11.27;7.20;;;3.40;99.90;;;;;;5006758;28;20202;-63
2022/01/31 06:24:25;;;;;;;13.32;7.30;;;3.40;99.90;;;;;;5006446;28;20205;-62
2022/01/31 06:26:53;;;;;;;11.88;6.78;;;3.50;99.90;;;;;;5006061;28;20233;-62
2022/01/31 06:29:21;;;;;;;8.48;6.03;;;3.50;99.90;;;;;;5004810;28;20336;-62
2022/01/31 06:31:49;;;;;;;11.25;6.10;;;3.50;99.90;;;;;;5004595;28;20197;-62
2022/01/31 06:34:18;;;;;;;8.18;6.38;;;3.50;99.90;;;;;;5006243;28;20225;-62
2022/01/31 06:36:48;;;;;;;8.48;6.07;;;3.50;99.90;;;;;;5006057;28;20249;-62
2022/01/31 06:39:16;;;;;;;8.48;6.20;;;3.60;99.90;;;;;;5005702;28;20285;-63
2022/01/31 06:41:44;;;;;;;8.48;6.43;;;3.60;99.90;;;;;;5006206;28;20232;-63
2022/01/31 06:44:12;;;;;;;11.40;6.00;;;3.60;99.90;;;;;;5006075;28;20232;-63
2022/01/31 06:46:40;;;;;;;8.85;5.25;;;3.60;99.90;;;;;;5006239;28;20786;-63
2022/01/31 06:49:07;;;;;;;7.72;4.90;;;3.70;99.90;;;;;;5006092;28;20235;-64
2022/01/31 06:51:35;;;;;;;8.57;4.90;;;3.60;99.90;;;;;;5006147;28;20300;-64
2022/01/31 06:54:06;;;;;;;6.10;3.80;;;3.70;99.90;;;;;;5006019;28;20205;-62
2022/01/31 06:56:38;;;;;;;8.40;4.10;;;3.70;99.90;;;;;;5005796;28;20320;-63
2022/01/31 06:59:06;;;;;;;7.88;4.32;;;3.70;99.90;;;;;;5004119;28;20206;-63
2022/01/31 07:01:34;;;;;;;6.88;4.15;;;3.70;99.90;;;;;;5001947;28;20224;-63
2022/01/31 07:04:02;;;;;;;5.65;4.32;;;3.80;99.90;;;;;;4999368;28;20216;-63
2022/01/31 07:06:30;;;;;;;8.40;4.03;;;3.80;99.90;;;;;;5001034;28;20223;-63
2022/01/31 07:08:59;;;;;;;12.40;4.35;;;3.80;99.90;;;;;;5004732;28;20335;-63
2022/01/31 07:11:33;;;;;;;6.28;3.13;;;3.80;99.90;;;;;;4999815;28;20291;-63
2022/01/31 07:14:04;;;;;;;4.93;3.47;;;3.80;99.90;;;;;;5005882;28;20464;-63
2022/01/31 07:16:34;;;;;;;9.63;4.20;;;3.80;99.90;;;;;;5005942;28;20253;-63
2022/01/31 07:19:06;;;;;;;5.07;3.47;;;3.80;99.90;;;;;;5005627;28;20209;-63
2022/01/31 07:21:39;;;;;;;4.32;3.75;;;3.80;99.90;;;;;;5005860;28;20225;-63
2022/01/31 07:24:20;;;;;;;3.05;2.85;;;3.80;99.90;;;;;;5008462;28;20212;-63
2022/01/31 07:26:50;;;;;;;7.82;3.30;;;3.80;99.90;;;;;;5011057;28;20613;-64
2022/01/31 07:29:19;;;;;;;6.60;2.63;;;3.80;99.90;;;;;;5011218;28;20260;-63
2022/01/31 07:31:47;;;;;;;3.83;2.95;;;3.90;99.90;;;;;;5011037;28;20304;-63
2022/01/31 07:34:17;;;;;;;6.75;2.80;;;3.90;99.90;;;;;;5009431;28;20209;-63
2022/01/31 07:36:46;;;;;;;4.38;2.75;;;3.90;99.90;;;;;;5010719;28;20311;-64
2022/01/31 07:39:15;;;;;;;4.90;2.25;;;3.90;99.90;;;;;;5013973;28;20208;-64
2022/01/31 07:41:44;;;;;;;3.45;2.80;;;4.00;99.90;;;;;;5014724;28;20225;-64
2022/01/31 07:44:13;;;;;;;7.25;2.40;;;4.00;99.90;;;;;;5015039;28;20260;-64
2022/01/31 07:46:42;;;;;;;2.50;2.30;;;4.10;99.90;;;;;;5008624;28;20700;-65
2022/01/31 07:49:10;;;;;;;2.60;2.15;;;4.10;99.90;;;;;;5008700;28;20249;-64
2022/01/31 07:51:39;;;;;;;2.85;1.80;;;4.20;99.90;;;;;;5014891;28;20233;-64
2022/01/31 07:54:07;;;;;;;4.32;2.15;;;4.30;99.90;;;;;;5014764;28;20237;-64
2022/01/31 07:56:35;;;;;;;2.53;2.25;;;4.30;99.90;;;;;;5015078;28;20276;-64
2022/01/31 07:59:03;;;;;;;2.75;2.30;;;4.40;99.90;;;;;;5014545;28;20229;-64
2022/01/31 08:01:32;;;;;;;1.90;1.75;;;4.50;99.90;;;;;;5014446;28;20770;-64
2022/01/31 08:04:01;;;;;;;3.50;2.08;;;4.50;99.90;;;;;;5014524;28;20213;-63
2022/01/31 08:06:29;;;;;;;2.85;2.10;;;4.50;99.90;;;;;;5014430;28;20278;-63
2022/01/31 08:08:56;;;;;;;3.50;2.28;;;4.50;99.90;;;;;;5013403;28;20240;-63
2022/01/31 08:11:30;;;;;;;3.10;2.50;;;4.50;99.90;;;;;;5014027;28;20225;-63
2022/01/31 08:14:01;;;;;;;2.90;2.20;;;4.50;99.90;;;;;;5013270;28;20236;-64
2022/01/31 08:16:29;;;;;;;4.55;2.63;;;4.40;99.90;;;;;;5008754;28;20221;-64
2022/01/31 08:18:58;;;;;;;4.35;2.33;;;4.40;99.90;;;;;;5014094;28;20190;-64
2022/01/31 08:21:26;;;;;;;2.15;1.80;;;4.40;99.90;;;;;;5013869;28;20738;-63
2022/01/31 08:23:54;;;;;;;4.05;2.38;;;4.50;99.90;;;;;;5014001;28;20284;-63
2022/01/31 08:26:22;;;;;;;3.67;1.77;;;4.40;99.90;;;;;;5013743;28;20325;-64
2022/01/31 08:28:55;;;;;;;2.45;2.25;;;4.40;99.90;;;;;;5014074;28;20292;-64
2022/01/31 08:31:28;;;;;;;2.33;2.13;;;4.40;99.90;;;;;;5013786;28;20288;-64
2022/01/31 08:34:19;;;;;;;4.90;2.63;;;4.40;99.90;;;;;;5014102;28;20216;-64
2022/01/31 08:36:47;;;;;;;2.33;2.10;;;4.50;99.90;;;;;;5013812;28;20320;-64
2022/01/31 08:39:18;;;;;;;4.95;2.63;;;4.60;99.90;;;;;;5014019;28;20205;-63
2022/01/31 08:41:48;;;;;;;4.35;2.97;;;4.80;99.90;;;;;;5013400;28;20259;-64
2022/01/31 08:44:18;;;;;;;2.70;1.90;;;5.00;99.90;;;;;;5013962;28;20748;-63
2022/01/31 08:46:47;;;;;;;3.70;2.08;;;5.30;99.90;;;;;;5007570;28;20769;-64
2022/01/31 08:49:17;;;;;;;4.00;1.90;;;5.40;99.90;;;;;;5006698;28;20221;-64
2022/01/31 08:51:46;;;;;;;5.45;2.05;;;5.40;99.90;;;;;;5013311;28;20225;-69
2022/01/31 08:54:15;;;;;;;3.10;2.03;;;5.40;99.90;;;;;;5013539;28;20229;-64
2022/01/31 08:56:45;;;;;;;1.88;1.75;;;5.30;99.90;;;;;;5013695;28;20371;-64
2022/01/31 08:59:18;;;;;;;5.90;2.40;;;5.30;99.90;;;;;;5013749;28;20259;-64
2022/01/31 09:01:52;;;;;;;4.22;1.80;;;5.30;99.90;;;;;;5013431;28;20229;-64
2022/01/31 09:04:33;;;;;;;2.67;1.73;;;5.20;99.90;;;;;;5013607;28;20200;-64
2022/01/31 09:07:02;;;;;;;6.28;2.38;;;5.30;99.90;;;;;;5013019;28;20221;-63
2022/01/31 09:09:31;;;;;;;1.92;1.70;;;5.40;99.90;;;;;;5013496;28;20791;-64
2022/01/31 09:12:06;;;;;;;2.20;1.38;;;5.60;99.90;;;;;;5013116;28;20205;-64
2022/01/31 09:14:35;;;;;;;2.55;1.60;;;5.60;99.90;;;;;;5013579;28;20284;-64
2022/01/31 09:17:04;;;;;;;4.78;1.92;;;5.60;99.90;;;;;;5012941;28;20249;-64
2022/01/31 09:19:33;;;;;;;6.32;2.53;;;5.60;99.90;;;;;;5013748;28;20229;-64
2022/01/31 09:22:01;;;;;;;4.30;2.08;;;5.50;99.90;;;;;;5006689;28;20292;-64
2022/01/31 09:24:29;;;;;;;3.08;1.85;;;5.50;99.90;;;;;;5007010;28;20205;-64
2022/01/31 09:26:57;;;;;;;4.35;2.30;;;5.50;99.90;;;;;;5006577;28;20324;-64
2022/01/31 09:29:25;;;;;;;4.35;1.83;;;5.60;99.90;;;;;;5006869;28;20575;-64
2022/01/31 09:31:54;;;;;;;5.43;2.20;;;5.60;99.90;;;;;;5012719;28;20243;-63
2022/01/31 09:34:23;;;;;;;3.78;1.85;;;5.60;99.90;;;;;;5013090;28;20279;-63
2022/01/31 09:36:52;;;;;;;3.17;1.50;;;5.70;99.90;;;;;;5012805;28;20312;-64
2022/01/31 09:39:20;;;;;;;3.33;1.17;;;5.70;99.90;;;;;;5013853;28;20296;-64
2022/01/31 09:41:53;;;;;;;7.05;1.70;;;5.60;99.90;;;;;;5012850;28;20216;-64
2022/01/31 09:44:27;;;;;;;3.72;1.38;;;5.60;99.90;;;;;;5012641;28;20750;-64
2022/01/31 09:47:07;;;;;;;5.18;1.92;;;5.70;99.90;;;;;;5012798;28;20724;-64
2022/01/31 09:49:35;;;;;;;1.50;1.20;;;5.60;99.90;;;;;;5012621;28;20570;-64
2022/01/31 09:52:04;;;;;;;3.33;1.50;;;5.50;99.90;;;;;;5012231;28;20453;-64
2022/01/31 09:54:32;;;;;;;4.05;1.40;;;5.50;99.90;;;;;;5012578;28;20300;-64
2022/01/31 09:57:00;;;;;;;4.10;1.65;;;5.50;99.90;;;;;;5012306;28;20248;-64
2022/01/31 09:59:28;;;;;;;1.63;0.98;;;5.60;99.90;;;;;;5012512;28;20205;-64
2022/01/31 10:01:57;;;;;;;3.67;1.25;;;5.70;99.90;;;;;;5012013;28;20622;-64
2022/01/31 10:04:30;;;;;;;4.68;1.38;;;5.90;99.90;;;;;;5012436;28;20335;-63
2022/01/31 10:06:58;;;;;;;1.35;0.90;;;6.00;99.90;;;;;;5011694;28;20256;-64
2022/01/31 10:09:29;;;;;;;3.35;1.08;;;6.00;99.90;;;;;;5012153;28;20292;-64
2022/01/31 10:12:06;;;;;;;1.55;1.33;;;5.90;99.90;;;;;;5012111;28;20324;-64
2022/01/31 10:17:25;;;;;;;2.05;1.30;;;5.90;99.90;;;;;;5012085;28;20193;-64
2022/01/31 10:20:10;;;;;;;1.77;0.90;;;5.90;99.90;;;;;;5012128;28;20197;-64
2022/01/31 10:22:39;;;;;;;1.23;1.05;;;6.00;99.90;;;;;;5012016;28;20209;-63
2022/01/31 10:25:10;;;;;;;2.38;1.08;;;6.10;99.90;;;;;;5011699;28;20331;-64
2022/01/31 10:27:58;;;;;;;2.15;0.77;;;6.10;99.90;;;;;;5008239;28;20211;-65
2022/01/31 10:30:29;;;;;;;4.20;0.95;;;6.20;99.90;;;;;;5011870;28;20308;-64
2022/01/31 10:32:59;;;;;;;2.08;0.80;;;6.20;99.90;;;;;;5011804;28;20738;-64
2022/01/31 10:35:29;;;;;;;0.82;0.63;;;6.20;99.90;;;;;;5011842;28;20777;-64
2022/01/31 10:38:03;;;;;;;2.00;1.00;;;6.20;99.90;;;;;;5011386;28;20288;-64
2022/01/31 10:43:47;;;;;;;5.38;0.77;;;6.20;99.90;;;;;;5011724;28;20276;-64
2022/01/31 10:50:36;;;;;;;2.13;0.90;;;6.30;99.90;;;;;;5011440;28;20216;-65
2022/01/31 10:52:18;;;;;;;2.42;1.00;;;6.30;99.90;;;;;;5011254;28;20304;-65
2022/01/31 10:54:50;;;;;;;1.15;0.57;;;6.40;99.90;;;;;;5011525;28;20288;-64
2022/01/31 10:57:22;;;;;;;1.38;0.80;;;6.40;99.90;;;;;;5011652;28;20295;-65
2022/01/31 10:59:52;;;;;;;1.63;0.75;;;6.30;99.90;;;;;;5011640;28;20256;-64
2022/01/31 11:02:23;;;;;;;2.35;0.70;;;6.10;99.90;;;;;;5011438;28;20225;-64
2022/01/31 11:04:53;;;;;;;1.75;0.70;;;6.10;99.90;;;;;;5011621;28;20209;-64
2022/01/31 11:07:23;;;;;;;0.75;0.60;;;5.90;99.90;;;;;;5008041;28;20635;-64
2022/01/31 11:09:53;;;;;;;2.55;0.70;;;5.80;99.90;;;;;;5011415;28;20205;-64
2022/01/31 11:12:23;;;;;;;0.70;0.60;;;5.70;99.90;;;;;;5011033;28;20216;-64
2022/01/31 11:14:54;;;;;;;1.02;0.60;;;5.70;99.90;;;;;;5011491;28;20677;-64
2022/01/31 11:17:24;;;;;;;1.10;0.60;;;5.70;99.90;;;;;;5011266;28;20209;-64
2022/01/31 11:19:56;;;;;;;0.82;0.63;;;5.70;99.90;;;;;;5011462;28;20205;-63
2022/01/31 11:22:31;;;;;;;0.73;0.70;;;5.60;99.90;;;;;;5011247;28;20300;-64
2022/01/31 11:25:16;;;;;;;4.05;1.00;;;5.60;99.90;;;;;;5006717;28;20596;-64
2022/01/31 11:28:06;;;;;;;0.85;0.55;;;5.60;99.90;;;;;;5011143;28;20215;-64
2022/01/31 11:30:34;;;;;;;1.60;0.65;;;5.60;99.90;;;;;;5011531;28;20295;-64
2022/01/31 11:33:03;;;;;;;1.30;0.50;;;5.60;99.90;;;;;;5011013;28;20232;-64
2022/01/31 11:35:31;;;;;;;2.55;0.70;;;5.50;99.90;;;;;;5011019;28;20295;-64
2022/01/31 11:37:59;;;;;;;1.92;0.70;;;5.50;99.90;;;;;;5010962;28;20301;-64
2022/01/31 11:40:27;;;;;;;1.73;0.70;;;5.40;99.90;;;;;;5011066;28;20693;-64
2022/01/31 11:42:56;;;;;;;0.60;0.55;;;5.40;99.90;;;;;;5010799;28;20667;-64
2022/01/31 11:45:31;;;;;;;0.60;0.50;;;5.30;99.90;;;;;;5011051;28;20309;-64
2022/01/31 11:48:04;;;;;;;2.25;0.70;;;5.20;99.90;;;;;;5010950;28;20673;-64
2022/01/31 11:50:42;;;;;;;0.70;0.57;;;5.20;99.90;;;;;;5011115;28;20251;-63
2022/01/31 11:53:10;;;;;;;1.55;0.75;;;5.10;99.90;;;;;;5011353;28;20235;-63
2022/01/31 11:55:39;;;;;;;1.00;0.70;;;5.10;99.90;;;;;;5010753;28;20267;-63
2022/01/31 11:58:08;;;;;;;1.10;0.70;;;5.00;99.90;;;;;;5010731;28;20251;-65
2022/01/31 12:00:39;;;;;;;1.40;0.60;;;5.00;99.90;;;;;;5011005;28;20205;-64
2022/01/31 12:03:09;;;;;;;0.85;0.60;;;5.10;99.90;;;;;;5010747;28;20205;-64
2022/01/31 12:05:40;;;;;;;1.00;0.60;;;5.10;99.90;;;;;;5010799;28;20647;-64
2022/01/31 12:08:11;;;;;;;1.00;0.70;;;5.20;99.90;;;;;;5010467;28;20197;-63
2022/01/31 12:10:42;;;;;;;0.70;0.60;;;5.20;99.90;;;;;;5010824;28;20212;-65
2022/01/31 12:13:38;;;;;;;0.90;0.60;;;5.40;99.90;;;;;;5010676;28;20200;-64
2022/01/31 12:16:34;;;;;;;0.95;0.60;;;5.50;99.90;;;;;;5011282;28;20762;-63
2022/01/31 12:19:28;;;;;;;1.05;0.95;;;5.50;99.90;;;;;;5010766;28;20205;-65
2022/01/31 12:22:01;;;;;;;1.25;0.80;;;5.60;99.90;;;;;;5010627;28;20741;-64
2022/01/31 12:24:32;;;;;;;1.08;0.70;;;5.60;99.90;;;;;;5012480;28;20204;-65
2022/01/31 12:27:07;;;;;;;1.40;1.00;;;5.60;99.90;;;;;;5013797;28;20276;-65
2022/01/31 12:29:38;;;;;;;0.98;0.90;;;5.60;99.90;;;;;;5014267;28;20239;-64
2022/01/31 12:32:21;;;;;;;1.17;0.80;;;5.60;99.90;;;;;;5013983;28;20312;-65
2022/01/31 12:34:52;;;;;;;1.15;0.73;;;5.70;99.90;;;;;;5014152;28;20548;-64
2022/01/31 12:37:33;;;;;;;0.90;0.73;;;5.60;99.90;;;;;;5008831;28;20280;-64
2022/01/31 12:40:10;;;;;;;0.90;0.70;;;5.70;99.90;;;;;;5013970;28;20205;-63
2022/01/31 12:42:57;;;;;;;0.80;0.60;;;5.60;99.90;;;;;;5013784;28;20205;-64
2022/01/31 12:45:32;;;;;;;2.65;1.02;;;5.50;99.90;;;;;;5008291;28;20690;-64
2022/01/31 12:48:19;;;;;;;2.40;0.85;;;5.50;99.90;;;;;;5013840;28;20587;-64
2022/01/31 12:51:13;;;;;;;1.17;1.08;;;5.40;99.90;;;;;;5013825;28;20202;-63
2022/01/31 12:53:48;;;;;;;1.45;1.00;;;5.40;99.90;;;;;;5013661;28;20202;-64
2022/01/31 12:56:24;;;;;;;3.38;1.63;;;5.40;99.90;;;;;;5013677;28;20275;-64
2022/01/31 12:58:56;;;;;;;4.85;1.80;;;5.40;99.90;;;;;;5013595;28;20638;-64
2022/01/31 13:01:27;;;;;;;1.50;1.00;;;5.50;99.90;;;;;;5013735;28;20233;-64
2022/01/31 13:03:59;;;;;;;1.40;0.90;;;5.50;99.90;;;;;;5013221;28;20209;-64
2022/01/31 13:06:30;;;;;;;1.45;1.00;;;5.50;99.90;;;;;;5012373;28;20239;-65
2022/01/31 13:08:59;;;;;;;0.93;0.70;;;5.50;99.90;;;;;;5013616;28;20233;-65
2022/01/31 13:11:31;;;;;;;0.93;0.80;;;5.60;99.90;;;;;;5013427;28;20209;-64
2022/01/31 13:14:06;;;;;;;1.67;0.82;;;5.60;99.90;;;;;;5013638;28;20197;-64
2022/01/31 13:17:06;;;;;;;1.85;0.82;;;5.60;99.90;;;;;;5013078;28;20721;-64
2022/01/31 13:19:38;;;;;;;1.33;0.93;;;5.70;99.90;;;;;;5013441;28;20666;-63